sensor_id;sensor_type;location;lat;lon;timestamp;P1;durP1;ratioP1;P2;durP2;ratioP2
65463;SDS011;52063;45.110;9.870;2022-08-06T00:02:16;4.13;;;2.80;;
65463;SDS011;52063;45.110;9.870;2022-08-06T00:04:43;5.45;;;2.72;;
65463;SDS011;52063;45.110;9.870;2022-08-06T00:07:08;3.17;;;2.70;;
65463;SDS011;52063;45.110;9.870;2022-08-06T00:09:34;8.95;;;3.13;;
65463;SDS011;52063;45.110;9.870;2022-08-06T00:11:59;8.27;;;3.43;;
65463;SDS011;52063;45.110;9.870;2022-08-06T00:14:29;5.13;;;2.90;;
65463;SDS011;52063;45.110;9.870;2022-08-06T00:16:54;5.30;;;3.10;;
65463;SDS011;52063;45.110;9.870;2022-08-06T00:19:20;4.80;;;3.10;;
65463;SDS011;52063;45.110;9.870;2022-08-06T00:21:45;7.43;;;3.40;;
65463;SDS011;52063;45.110;9.870;2022-08-06T00:24:11;4.97;;;3.03;;
65463;SDS011;52063;45.110;9.870;2022-08-06T00:26:36;4.03;;;3.35;;
65463;SDS011;52063;45.110;9.870;2022-08-06T00:29:03;6.10;;;3.53;;
65463;SDS011;52063;45.110;9.870;2022-08-06T00:31:28;6.63;;;3.88;;
65463;SDS011;52063;45.110;9.870;2022-08-06T00:33:54;4.87;;;3.83;;
65463;SDS011;52063;45.110;9.870;2022-08-06T00:36:21;6.50;;;4.00;;
65463;SDS011;52063;45.110;9.870;2022-08-06T00:38:46;13.15;;;4.03;;
65463;SDS011;52063;45.110;9.870;2022-08-06T00:41:12;4.10;;;3.50;;
65463;SDS011;52063;45.110;9.870;2022-08-06T00:43:40;7.53;;;3.83;;
65463;SDS011;52063;45.110;9.870;2022-08-06T00:46:06;9.80;;;3.90;;
65463;SDS011;52063;45.110;9.870;2022-08-06T00:48:31;4.80;;;3.60;;
65463;SDS011;52063;45.110;9.870;2022-08-06T00:50:57;4.27;;;3.70;;
65463;SDS011;52063;45.110;9.870;2022-08-06T00:53:22;6.45;;;4.90;;
65463;SDS011;52063;45.110;9.870;2022-08-06T00:55:47;6.17;;;4.57;;
65463;SDS011;52063;45.110;9.870;2022-08-06T00:58:13;6.77;;;4.13;;
65463;SDS011;52063;45.110;9.870;2022-08-06T01:00:38;4.80;;;4.30;;
65463;SDS011;52063;45.110;9.870;2022-08-06T01:03:04;6.80;;;3.90;;
65463;SDS011;52063;45.110;9.870;2022-08-06T01:05:29;4.88;;;3.75;;
65463;SDS011;52063;45.110;9.870;2022-08-06T01:07:54;11.47;;;4.07;;
65463;SDS011;52063;45.110;9.870;2022-08-06T01:10:20;4.70;;;4.07;;
65463;SDS011;52063;45.110;9.870;2022-08-06T01:12:47;3.53;;;3.22;;
65463;SDS011;52063;45.110;9.870;2022-08-06T01:15:12;5.53;;;3.50;;
65463;SDS011;52063;45.110;9.870;2022-08-06T01:17:41;7.77;;;3.43;;
65463;SDS011;52063;45.110;9.870;2022-08-06T01:27:56;3.20;;;2.90;;
65463;SDS011;52063;45.110;9.870;2022-08-06T01:30:23;4.57;;;3.27;;
65463;SDS011;52063;45.110;9.870;2022-08-06T01:32:56;6.78;;;2.92;;
65463;SDS011;52063;45.110;9.870;2022-08-06T01:35:25;5.18;;;3.58;;
65463;SDS011;52063;45.110;9.870;2022-08-06T01:40:21;8.07;;;3.37;;
65463;SDS011;52063;45.110;9.870;2022-08-06T01:42:48;5.07;;;3.65;;
65463;SDS011;52063;45.110;9.870;2022-08-06T01:45:15;7.20;;;3.50;;
65463;SDS011;52063;45.110;9.870;2022-08-06T01:47:42;4.45;;;2.92;;
65463;SDS011;52063;45.110;9.870;2022-08-06T01:50:09;5.38;;;2.92;;
65463;SDS011;52063;45.110;9.870;2022-08-06T01:52:38;6.15;;;3.42;;
65463;SDS011;52063;45.110;9.870;2022-08-06T01:55:05;5.77;;;3.27;;
65463;SDS011;52063;45.110;9.870;2022-08-06T01:57:31;6.20;;;3.30;;
65463;SDS011;52063;45.110;9.870;2022-08-06T01:59:58;5.97;;;3.10;;
65463;SDS011;52063;45.110;9.870;2022-08-06T02:02:24;2.88;;;2.58;;
65463;SDS011;52063;45.110;9.870;2022-08-06T02:04:52;3.45;;;2.65;;
65463;SDS011;52063;45.110;9.870;2022-08-06T02:07:19;4.20;;;2.37;;
65463;SDS011;52063;45.110;9.870;2022-08-06T02:09:46;3.00;;;2.80;;
65463;SDS011;52063;45.110;9.870;2022-08-06T02:12:17;4.93;;;3.17;;
65463;SDS011;52063;45.110;9.870;2022-08-06T02:14:46;4.43;;;3.13;;
65463;SDS011;52063;45.110;9.870;2022-08-06T02:17:12;4.18;;;2.90;;
65463;SDS011;52063;45.110;9.870;2022-08-06T02:19:40;8.87;;;3.03;;
65463;SDS011;52063;45.110;9.870;2022-08-06T02:22:08;3.70;;;3.30;;
65463;SDS011;52063;45.110;9.870;2022-08-06T02:24:33;3.20;;;3.00;;
65463;SDS011;52063;45.110;9.870;2022-08-06T02:27:00;5.10;;;3.10;;
65463;SDS011;52063;45.110;9.870;2022-08-06T02:29:26;5.00;;;2.75;;
65463;SDS011;52063;45.110;9.870;2022-08-06T02:31:52;3.70;;;2.70;;
65463;SDS011;52063;45.110;9.870;2022-08-06T02:34:21;5.82;;;3.25;;
65463;SDS011;52063;45.110;9.870;2022-08-06T02:36:57;3.97;;;3.50;;
65463;SDS011;52063;45.110;9.870;2022-08-06T02:39:32;3.30;;;3.00;;
65463;SDS011;52063;45.110;9.870;2022-08-06T02:42:09;3.40;;;3.10;;
65463;SDS011;52063;45.110;9.870;2022-08-06T02:44:38;3.17;;;2.60;;
65463;SDS011;52063;45.110;9.870;2022-08-06T02:47:10;3.30;;;3.00;;
65463;SDS011;52063;45.110;9.870;2022-08-06T02:49:36;3.83;;;2.90;;
65463;SDS011;52063;45.110;9.870;2022-08-06T02:52:11;4.75;;;2.88;;
65463;SDS011;52063;45.110;9.870;2022-08-06T02:54:38;7.43;;;3.70;;
65463;SDS011;52063;45.110;9.870;2022-08-06T02:57:04;4.85;;;3.45;;
65463;SDS011;52063;45.110;9.870;2022-08-06T02:59:31;4.05;;;3.38;;
65463;SDS011;52063;45.110;9.870;2022-08-06T03:01:59;8.57;;;3.33;;
65463;SDS011;52063;45.110;9.870;2022-08-06T03:04:26;4.00;;;3.10;;
65463;SDS011;52063;45.110;9.870;2022-08-06T03:06:53;4.43;;;3.78;;
65463;SDS011;52063;45.110;9.870;2022-08-06T03:09:19;7.15;;;3.80;;
65463;SDS011;52063;45.110;9.870;2022-08-06T03:11:45;8.07;;;3.65;;
65463;SDS011;52063;45.110;9.870;2022-08-06T03:14:11;3.57;;;3.27;;
65463;SDS011;52063;45.110;9.870;2022-08-06T03:16:37;4.10;;;3.70;;
65463;SDS011;52063;45.110;9.870;2022-08-06T03:19:03;6.55;;;3.60;;
65463;SDS011;52063;45.110;9.870;2022-08-06T03:21:29;13.20;;;3.80;;
65463;SDS011;52063;45.110;9.870;2022-08-06T03:23:56;4.43;;;3.43;;
65463;SDS011;52063;45.110;9.870;2022-08-06T03:26:26;4.55;;;3.72;;
65463;SDS011;52063;45.110;9.870;2022-08-06T03:28:52;5.57;;;3.25;;
65463;SDS011;52063;45.110;9.870;2022-08-06T03:31:19;4.00;;;3.17;;
65463;SDS011;52063;45.110;9.870;2022-08-06T03:33:45;5.93;;;3.42;;
65463;SDS011;52063;45.110;9.870;2022-08-06T03:36:10;8.60;;;3.80;;
65463;SDS011;52063;45.110;9.870;2022-08-06T03:38:41;4.63;;;3.67;;
65463;SDS011;52063;45.110;9.870;2022-08-06T03:41:08;7.78;;;4.00;;
65463;SDS011;52063;45.110;9.870;2022-08-06T03:43:34;6.07;;;3.70;;
65463;SDS011;52063;45.110;9.870;2022-08-06T03:46:00;5.60;;;3.70;;
65463;SDS011;52063;45.110;9.870;2022-08-06T03:48:27;5.03;;;3.53;;
65463;SDS011;52063;45.110;9.870;2022-08-06T03:50:53;5.90;;;3.70;;
65463;SDS011;52063;45.110;9.870;2022-08-06T03:53:20;3.85;;;2.97;;
65463;SDS011;52063;45.110;9.870;2022-08-06T03:55:47;5.78;;;3.35;;
65463;SDS011;52063;45.110;9.870;2022-08-06T03:58:13;3.77;;;3.47;;
65463;SDS011;52063;45.110;9.870;2022-08-06T04:00:49;4.20;;;3.47;;
65463;SDS011;52063;45.110;9.870;2022-08-06T04:03:15;3.78;;;3.47;;
65463;SDS011;52063;45.110;9.870;2022-08-06T04:05:41;4.03;;;3.47;;
65463;SDS011;52063;45.110;9.870;2022-08-06T04:08:07;5.47;;;2.95;;
65463;SDS011;52063;45.110;9.870;2022-08-06T04:10:37;4.78;;;3.70;;
65463;SDS011;52063;45.110;9.870;2022-08-06T04:13:07;5.15;;;3.88;;
65463;SDS011;52063;45.110;9.870;2022-08-06T04:15:34;4.70;;;3.60;;
65463;SDS011;52063;45.110;9.870;2022-08-06T04:17:59;8.25;;;3.55;;
65463;SDS011;52063;45.110;9.870;2022-08-06T04:20:25;3.47;;;3.17;;
65463;SDS011;52063;45.110;9.870;2022-08-06T04:22:51;6.20;;;3.10;;
65463;SDS011;52063;45.110;9.870;2022-08-06T04:25:17;4.53;;;3.60;;
65463;SDS011;52063;45.110;9.870;2022-08-06T04:27:42;3.67;;;3.37;;
65463;SDS011;52063;45.110;9.870;2022-08-06T04:30:10;5.97;;;3.40;;
65463;SDS011;52063;45.110;9.870;2022-08-06T04:32:35;11.02;;;3.65;;
65463;SDS011;52063;45.110;9.870;2022-08-06T04:35:03;4.93;;;2.87;;
65463;SDS011;52063;45.110;9.870;2022-08-06T04:37:30;7.75;;;3.15;;
65463;SDS011;52063;45.110;9.870;2022-08-06T04:39:55;4.35;;;3.30;;
65463;SDS011;52063;45.110;9.870;2022-08-06T04:42:21;6.60;;;3.30;;
65463;SDS011;52063;45.110;9.870;2022-08-06T04:44:46;6.40;;;3.20;;
65463;SDS011;52063;45.110;9.870;2022-08-06T04:47:12;4.80;;;3.73;;
65463;SDS011;52063;45.110;9.870;2022-08-06T04:49:38;6.83;;;3.53;;
65463;SDS011;52063;45.110;9.870;2022-08-06T04:52:03;7.25;;;3.55;;
65463;SDS011;52063;45.110;9.870;2022-08-06T04:54:28;6.70;;;3.30;;
65463;SDS011;52063;45.110;9.870;2022-08-06T04:56:54;4.93;;;3.60;;
65463;SDS011;52063;45.110;9.870;2022-08-06T04:59:19;5.90;;;3.30;;
65463;SDS011;52063;45.110;9.870;2022-08-06T05:01:44;7.03;;;3.43;;
65463;SDS011;52063;45.110;9.870;2022-08-06T05:04:10;8.63;;;3.40;;
65463;SDS011;52063;45.110;9.870;2022-08-06T05:06:39;7.32;;;3.17;;
65463;SDS011;52063;45.110;9.870;2022-08-06T05:09:09;12.70;;;3.30;;
65463;SDS011;52063;45.110;9.870;2022-08-06T05:11:38;5.85;;;3.25;;
65463;SDS011;52063;45.110;9.870;2022-08-06T05:14:08;6.40;;;2.72;;
65463;SDS011;52063;45.110;9.870;2022-08-06T05:16:35;8.13;;;3.17;;
65463;SDS011;52063;45.110;9.870;2022-08-06T05:19:02;8.38;;;3.33;;
65463;SDS011;52063;45.110;9.870;2022-08-06T05:21:30;4.83;;;3.10;;
65463;SDS011;52063;45.110;9.870;2022-08-06T05:23:56;5.97;;;3.15;;
65463;SDS011;52063;45.110;9.870;2022-08-06T05:26:22;6.38;;;2.47;;
65463;SDS011;52063;45.110;9.870;2022-08-06T05:28:48;3.13;;;2.40;;
65463;SDS011;52063;45.110;9.870;2022-08-06T05:31:13;9.97;;;2.37;;
65463;SDS011;52063;45.110;9.870;2022-08-06T05:33:38;4.73;;;2.60;;
65463;SDS011;52063;45.110;9.870;2022-08-06T05:36:05;4.50;;;2.72;;
65463;SDS011;52063;45.110;9.870;2022-08-06T05:38:35;7.35;;;2.70;;
65463;SDS011;52063;45.110;9.870;2022-08-06T05:41:00;5.90;;;3.00;;
65463;SDS011;52063;45.110;9.870;2022-08-06T05:43:26;6.00;;;2.93;;
65463;SDS011;52063;45.110;9.870;2022-08-06T05:45:53;4.60;;;2.45;;
65463;SDS011;52063;45.110;9.870;2022-08-06T05:48:20;5.43;;;2.70;;
65463;SDS011;52063;45.110;9.870;2022-08-06T05:50:52;3.43;;;2.40;;
65463;SDS011;52063;45.110;9.870;2022-08-06T05:53:21;8.98;;;2.97;;
65463;SDS011;52063;45.110;9.870;2022-08-06T05:55:50;4.53;;;2.72;;
65463;SDS011;52063;45.110;9.870;2022-08-06T05:58:17;7.57;;;2.80;;
65463;SDS011;52063;45.110;9.870;2022-08-06T06:00:44;9.43;;;3.05;;
65463;SDS011;52063;45.110;9.870;2022-08-06T06:03:13;5.93;;;2.60;;
65463;SDS011;52063;45.110;9.870;2022-08-06T06:05:40;8.38;;;2.28;;
65463;SDS011;52063;45.110;9.870;2022-08-06T06:08:06;8.63;;;3.08;;
65463;SDS011;52063;45.110;9.870;2022-08-06T06:10:33;7.18;;;2.67;;
65463;SDS011;52063;45.110;9.870;2022-08-06T06:12:59;5.43;;;2.65;;
65463;SDS011;52063;45.110;9.870;2022-08-06T06:15:26;9.07;;;2.77;;
65463;SDS011;52063;45.110;9.870;2022-08-06T06:18:05;4.28;;;2.60;;
65463;SDS011;52063;45.110;9.870;2022-08-06T06:20:37;8.00;;;2.50;;
65463;SDS011;52063;45.110;9.870;2022-08-06T06:30:59;5.28;;;2.05;;
65463;SDS011;52063;45.110;9.870;2022-08-06T06:35:55;4.13;;;2.72;;
65463;SDS011;52063;45.110;9.870;2022-08-06T06:41:18;8.50;;;2.67;;
65463;SDS011;52063;45.110;9.870;2022-08-06T06:46:23;5.00;;;2.50;;
65463;SDS011;52063;45.110;9.870;2022-08-06T06:48:50;7.10;;;2.85;;
65463;SDS011;52063;45.110;9.870;2022-08-06T06:51:19;4.07;;;2.90;;
65463;SDS011;52063;45.110;9.870;2022-08-06T06:53:46;14.70;;;3.20;;
65463;SDS011;52063;45.110;9.870;2022-08-06T06:56:13;6.18;;;3.10;;
65463;SDS011;52063;45.110;9.870;2022-08-06T06:58:41;8.07;;;3.70;;
65463;SDS011;52063;45.110;9.870;2022-08-06T07:01:08;5.65;;;3.38;;
65463;SDS011;52063;45.110;9.870;2022-08-06T07:03:34;6.33;;;3.30;;
65463;SDS011;52063;45.110;9.870;2022-08-06T07:06:02;17.08;;;3.90;;
65463;SDS011;52063;45.110;9.870;2022-08-06T07:08:30;8.35;;;3.58;;
65463;SDS011;52063;45.110;9.870;2022-08-06T07:10:57;9.45;;;3.90;;
65463;SDS011;52063;45.110;9.870;2022-08-06T07:13:23;5.28;;;3.58;;
65463;SDS011;52063;45.110;9.870;2022-08-06T07:15:49;5.47;;;3.33;;
65463;SDS011;52063;45.110;9.870;2022-08-06T07:18:15;6.55;;;3.22;;
65463;SDS011;52063;45.110;9.870;2022-08-06T07:20:41;4.20;;;3.40;;
65463;SDS011;52063;45.110;9.870;2022-08-06T07:23:08;6.90;;;3.63;;
65463;SDS011;52063;45.110;9.870;2022-08-06T07:25:36;7.30;;;3.55;;
65463;SDS011;52063;45.110;9.870;2022-08-06T07:28:03;5.13;;;3.50;;
65463;SDS011;52063;45.110;9.870;2022-08-06T07:30:29;4.88;;;3.60;;
65463;SDS011;52063;45.110;9.870;2022-08-06T07:32:54;5.03;;;3.67;;
65463;SDS011;52063;45.110;9.870;2022-08-06T07:35:20;8.20;;;3.58;;
65463;SDS011;52063;45.110;9.870;2022-08-06T07:38:04;14.30;;;4.13;;
65463;SDS011;52063;45.110;9.870;2022-08-06T07:40:32;4.53;;;3.33;;
65463;SDS011;52063;45.110;9.870;2022-08-06T07:43:02;5.72;;;3.70;;
65463;SDS011;52063;45.110;9.870;2022-08-06T07:45:31;5.20;;;3.58;;
65463;SDS011;52063;45.110;9.870;2022-08-06T07:47:56;6.23;;;3.80;;
65463;SDS011;52063;45.110;9.870;2022-08-06T07:50:23;8.38;;;3.53;;
65463;SDS011;52063;45.110;9.870;2022-08-06T07:52:49;9.13;;;3.63;;
65463;SDS011;52063;45.110;9.870;2022-08-06T07:55:15;9.95;;;3.88;;
65463;SDS011;52063;45.110;9.870;2022-08-06T07:57:43;6.22;;;3.28;;
65463;SDS011;52063;45.110;9.870;2022-08-06T08:00:08;7.13;;;3.77;;
65463;SDS011;52063;45.110;9.870;2022-08-06T08:02:37;6.45;;;3.70;;
65463;SDS011;52063;45.110;9.870;2022-08-06T08:05:03;5.70;;;3.50;;
65463;SDS011;52063;45.110;9.870;2022-08-06T08:07:47;5.00;;;3.30;;
65463;SDS011;52063;45.110;9.870;2022-08-06T08:10:13;4.33;;;3.20;;
65463;SDS011;52063;45.110;9.870;2022-08-06T08:12:40;5.50;;;3.60;;
65463;SDS011;52063;45.110;9.870;2022-08-06T08:15:07;4.03;;;3.33;;
65463;SDS011;52063;45.110;9.870;2022-08-06T08:17:35;6.27;;;3.30;;
65463;SDS011;52063;45.110;9.870;2022-08-06T08:20:07;7.00;;;3.25;;
65463;SDS011;52063;45.110;9.870;2022-08-06T08:22:33;6.57;;;3.17;;
65463;SDS011;52063;45.110;9.870;2022-08-06T08:24:59;7.22;;;3.00;;
65463;SDS011;52063;45.110;9.870;2022-08-06T08:27:24;6.80;;;2.70;;
65463;SDS011;52063;45.110;9.870;2022-08-06T08:29:50;5.47;;;2.83;;
65463;SDS011;52063;45.110;9.870;2022-08-06T08:32:17;4.63;;;3.08;;
65463;SDS011;52063;45.110;9.870;2022-08-06T08:34:42;8.23;;;3.10;;
65463;SDS011;52063;45.110;9.870;2022-08-06T08:37:08;6.30;;;3.00;;
65463;SDS011;52063;45.110;9.870;2022-08-06T08:39:33;5.20;;;3.03;;
65463;SDS011;52063;45.110;9.870;2022-08-06T08:42:03;3.80;;;2.97;;
65463;SDS011;52063;45.110;9.870;2022-08-06T08:44:32;7.03;;;3.22;;
65463;SDS011;52063;45.110;9.870;2022-08-06T08:46:58;5.00;;;3.05;;
65463;SDS011;52063;45.110;9.870;2022-08-06T08:52:01;6.27;;;2.87;;
65463;SDS011;52063;45.110;9.870;2022-08-06T08:54:28;6.53;;;2.50;;
65463;SDS011;52063;45.110;9.870;2022-08-06T08:56:54;5.78;;;2.90;;
65463;SDS011;52063;45.110;9.870;2022-08-06T08:59:19;5.03;;;2.90;;
65463;SDS011;52063;45.110;9.870;2022-08-06T09:01:45;5.50;;;2.85;;
65463;SDS011;52063;45.110;9.870;2022-08-06T09:04:11;3.95;;;2.80;;
65463;SDS011;52063;45.110;9.870;2022-08-06T09:06:37;5.17;;;2.70;;
65463;SDS011;52063;45.110;9.870;2022-08-06T09:09:03;6.47;;;3.00;;
65463;SDS011;52063;45.110;9.870;2022-08-06T09:11:33;3.80;;;3.17;;
65463;SDS011;52063;45.110;9.870;2022-08-06T09:14:02;5.60;;;2.97;;
65463;SDS011;52063;45.110;9.870;2022-08-06T09:16:28;5.78;;;2.88;;
65463;SDS011;52063;45.110;9.870;2022-08-06T09:18:54;4.13;;;2.60;;
65463;SDS011;52063;45.110;9.870;2022-08-06T09:21:19;5.17;;;2.37;;
65463;SDS011;52063;45.110;9.870;2022-08-06T09:23:45;6.57;;;2.80;;
65463;SDS011;52063;45.110;9.870;2022-08-06T09:26:10;6.37;;;2.83;;
65463;SDS011;52063;45.110;9.870;2022-08-06T09:28:36;9.13;;;2.97;;
65463;SDS011;52063;45.110;9.870;2022-08-06T09:31:10;6.43;;;3.05;;
65463;SDS011;52063;45.110;9.870;2022-08-06T09:33:37;3.92;;;2.75;;
65463;SDS011;52063;45.110;9.870;2022-08-06T09:36:04;4.67;;;2.77;;
65463;SDS011;52063;45.110;9.870;2022-08-06T09:38:30;5.05;;;3.08;;
65463;SDS011;52063;45.110;9.870;2022-08-06T09:41:05;5.07;;;2.63;;
65463;SDS011;52063;45.110;9.870;2022-08-06T09:43:31;4.70;;;2.60;;
65463;SDS011;52063;45.110;9.870;2022-08-06T09:45:57;5.72;;;2.67;;
65463;SDS011;52063;45.110;9.870;2022-08-06T09:48:22;4.57;;;2.60;;
65463;SDS011;52063;45.110;9.870;2022-08-06T09:50:48;3.60;;;2.57;;
65463;SDS011;52063;45.110;9.870;2022-08-06T09:53:14;4.00;;;3.03;;
65463;SDS011;52063;45.110;9.870;2022-08-06T09:55:39;3.47;;;2.38;;
65463;SDS011;52063;45.110;9.870;2022-08-06T09:58:05;3.73;;;2.67;;
65463;SDS011;52063;45.110;9.870;2022-08-06T10:00:32;3.92;;;2.60;;
65463;SDS011;52063;45.110;9.870;2022-08-06T10:03:02;3.17;;;2.40;;
65463;SDS011;52063;45.110;9.870;2022-08-06T10:05:28;5.57;;;2.53;;
65463;SDS011;52063;45.110;9.870;2022-08-06T10:08:07;3.75;;;2.30;;
65463;SDS011;52063;45.110;9.870;2022-08-06T10:13:19;5.38;;;2.90;;
65463;SDS011;52063;45.110;9.870;2022-08-06T10:15:44;4.07;;;2.43;;
65463;SDS011;52063;45.110;9.870;2022-08-06T10:21:04;4.65;;;2.40;;
65463;SDS011;52063;45.110;9.870;2022-08-06T10:23:33;4.28;;;2.40;;
65463;SDS011;52063;45.110;9.870;2022-08-06T10:26:00;3.53;;;2.80;;
65463;SDS011;52063;45.110;9.870;2022-08-06T10:28:26;3.40;;;3.10;;
65463;SDS011;52063;45.110;9.870;2022-08-06T10:30:52;4.18;;;3.05;;
65463;SDS011;52063;45.110;9.870;2022-08-06T10:33:19;6.43;;;3.00;;
65463;SDS011;52063;45.110;9.870;2022-08-06T10:35:45;4.93;;;2.60;;
65463;SDS011;52063;45.110;9.870;2022-08-06T10:38:12;3.40;;;2.60;;
65463;SDS011;52063;45.110;9.870;2022-08-06T10:40:39;5.00;;;2.80;;
65463;SDS011;52063;45.110;9.870;2022-08-06T10:43:06;2.70;;;2.47;;
65463;SDS011;52063;45.110;9.870;2022-08-06T10:45:32;4.23;;;2.63;;
65463;SDS011;52063;45.110;9.870;2022-08-06T10:47:58;6.63;;;2.88;;
65463;SDS011;52063;45.110;9.870;2022-08-06T10:50:24;2.77;;;2.50;;
65463;SDS011;52063;45.110;9.870;2022-08-06T10:52:50;5.20;;;2.45;;
65463;SDS011;52063;45.110;9.870;2022-08-06T10:55:16;6.07;;;2.47;;
65463;SDS011;52063;45.110;9.870;2022-08-06T10:57:42;6.88;;;2.88;;
65463;SDS011;52063;45.110;9.870;2022-08-06T11:00:08;5.13;;;2.67;;
65463;SDS011;52063;45.110;9.870;2022-08-06T11:02:51;3.75;;;2.50;;
65463;SDS011;52063;45.110;9.870;2022-08-06T11:05:22;6.97;;;2.40;;
65463;SDS011;52063;45.110;9.870;2022-08-06T11:12:56;4.50;;;2.20;;
65463;SDS011;52063;45.110;9.870;2022-08-06T11:15:22;4.00;;;2.67;;
65463;SDS011;52063;45.110;9.870;2022-08-06T11:23:01;3.75;;;2.83;;
65463;SDS011;52063;45.110;9.870;2022-08-06T11:28:07;8.73;;;2.47;;
65463;SDS011;52063;45.110;9.870;2022-08-06T11:30:37;4.00;;;2.53;;
65463;SDS011;52063;45.110;9.870;2022-08-06T11:33:03;11.97;;;2.70;;
65463;SDS011;52063;45.110;9.870;2022-08-06T11:38:01;4.73;;;1.97;;
65463;SDS011;52063;45.110;9.870;2022-08-06T11:40:26;2.83;;;2.50;;
65463;SDS011;52063;45.110;9.870;2022-08-06T11:42:52;5.80;;;2.40;;
65463;SDS011;52063;45.110;9.870;2022-08-06T11:45:17;7.10;;;2.65;;
65463;SDS011;52063;45.110;9.870;2022-08-06T11:50:27;7.80;;;2.55;;
65463;SDS011;52063;45.110;9.870;2022-08-06T11:52:52;5.73;;;2.63;;
65463;SDS011;52063;45.110;9.870;2022-08-06T11:55:17;7.15;;;2.50;;
65463;SDS011;52063;45.110;9.870;2022-08-06T11:57:43;15.57;;;2.60;;
65463;SDS011;52063;45.110;9.870;2022-08-06T12:00:10;13.77;;;2.65;;
65463;SDS011;52063;45.110;9.870;2022-08-06T12:07:38;3.28;;;2.35;;
65463;SDS011;52063;45.110;9.870;2022-08-06T12:14:58;6.53;;;2.00;;
65463;SDS011;52063;45.110;9.870;2022-08-06T12:17:25;4.18;;;2.60;;
65463;SDS011;52063;45.110;9.870;2022-08-06T12:19:51;6.63;;;1.95;;
65463;SDS011;52063;45.110;9.870;2022-08-06T12:22:18;3.33;;;2.00;;
65463;SDS011;52063;45.110;9.870;2022-08-06T12:24:44;5.33;;;1.93;;
65463;SDS011;52063;45.110;9.870;2022-08-06T12:27:10;3.00;;;1.70;;
65463;SDS011;52063;45.110;9.870;2022-08-06T12:29:36;2.70;;;2.20;;
65463;SDS011;52063;45.110;9.870;2022-08-06T12:32:18;2.45;;;2.20;;
65463;SDS011;52063;45.110;9.870;2022-08-06T12:34:44;3.20;;;1.83;;
65463;SDS011;52063;45.110;9.870;2022-08-06T12:37:10;4.03;;;2.03;;
65463;SDS011;52063;45.110;9.870;2022-08-06T12:39:39;2.78;;;1.90;;
65463;SDS011;52063;45.110;9.870;2022-08-06T12:42:26;2.97;;;2.20;;
65463;SDS011;52063;45.110;9.870;2022-08-06T12:44:52;4.57;;;2.00;;
65463;SDS011;52063;45.110;9.870;2022-08-06T12:47:18;2.38;;;2.17;;
65463;SDS011;52063;45.110;9.870;2022-08-06T12:49:43;4.73;;;2.03;;
65463;SDS011;52063;45.110;9.870;2022-08-06T12:52:16;3.35;;;2.28;;
65463;SDS011;52063;45.110;9.870;2022-08-06T12:54:42;3.20;;;2.20;;
65463;SDS011;52063;45.110;9.870;2022-08-06T12:57:08;4.45;;;2.05;;
65463;SDS011;52063;45.110;9.870;2022-08-06T12:59:33;5.20;;;2.08;;
65463;SDS011;52063;45.110;9.870;2022-08-06T13:01:59;5.77;;;2.00;;
65463;SDS011;52063;45.110;9.870;2022-08-06T13:04:24;7.47;;;2.10;;
65463;SDS011;52063;45.110;9.870;2022-08-06T13:06:51;9.20;;;2.20;;
65463;SDS011;52063;45.110;9.870;2022-08-06T13:09:17;7.03;;;2.33;;
65463;SDS011;52063;45.110;9.870;2022-08-06T13:11:51;12.03;;;2.50;;
65463;SDS011;52063;45.110;9.870;2022-08-06T13:14:17;4.10;;;2.37;;
65463;SDS011;52063;45.110;9.870;2022-08-06T13:16:43;5.13;;;2.23;;
65463;SDS011;52063;45.110;9.870;2022-08-06T13:19:10;3.47;;;2.00;;
65463;SDS011;52063;45.110;9.870;2022-08-06T13:21:37;5.33;;;1.80;;
65463;SDS011;52063;45.110;9.870;2022-08-06T13:24:03;3.85;;;1.83;;
65463;SDS011;52063;45.110;9.870;2022-08-06T13:26:29;4.70;;;1.83;;
65463;SDS011;52063;45.110;9.870;2022-08-06T13:29:14;4.10;;;2.20;;
65463;SDS011;52063;45.110;9.870;2022-08-06T13:31:41;4.32;;;2.30;;
65463;SDS011;52063;45.110;9.870;2022-08-06T13:34:14;2.70;;;1.70;;
65463;SDS011;52063;45.110;9.870;2022-08-06T13:36:41;12.57;;;2.00;;
65463;SDS011;52063;45.110;9.870;2022-08-06T13:39:26;2.47;;;1.95;;
65463;SDS011;52063;45.110;9.870;2022-08-06T13:42:07;1.92;;;1.52;;
65463;SDS011;52063;45.110;9.870;2022-08-06T13:44:37;4.25;;;2.42;;
65463;SDS011;52063;45.110;9.870;2022-08-06T13:47:06;4.50;;;2.40;;
65463;SDS011;52063;45.110;9.870;2022-08-06T13:49:32;6.05;;;2.22;;
65463;SDS011;52063;45.110;9.870;2022-08-06T13:51:58;3.45;;;2.28;;
65463;SDS011;52063;45.110;9.870;2022-08-06T13:54:24;4.00;;;2.30;;
65463;SDS011;52063;45.110;9.870;2022-08-06T13:56:50;4.70;;;2.25;;
65463;SDS011;52063;45.110;9.870;2022-08-06T13:59:16;8.45;;;2.50;;
65463;SDS011;52063;45.110;9.870;2022-08-06T14:01:42;3.30;;;2.13;;
65463;SDS011;52063;45.110;9.870;2022-08-06T14:04:07;3.27;;;2.10;;
65463;SDS011;52063;45.110;9.870;2022-08-06T14:06:32;3.50;;;2.30;;
65463;SDS011;52063;45.110;9.870;2022-08-06T14:08:58;3.47;;;2.30;;
65463;SDS011;52063;45.110;9.870;2022-08-06T14:11:23;2.50;;;2.30;;
65463;SDS011;52063;45.110;9.870;2022-08-06T14:13:48;3.45;;;2.00;;
65463;SDS011;52063;45.110;9.870;2022-08-06T14:16:14;5.33;;;2.40;;
65463;SDS011;52063;45.110;9.870;2022-08-06T14:18:39;2.57;;;2.10;;
65463;SDS011;52063;45.110;9.870;2022-08-06T14:21:04;3.90;;;2.00;;
65463;SDS011;52063;45.110;9.870;2022-08-06T14:23:30;2.63;;;2.00;;
65463;SDS011;52063;45.110;9.870;2022-08-06T14:25:55;3.53;;;2.40;;
65463;SDS011;52063;45.110;9.870;2022-08-06T14:28:20;2.80;;;2.30;;
65463;SDS011;52063;45.110;9.870;2022-08-06T14:30:46;2.53;;;2.10;;
65463;SDS011;52063;45.110;9.870;2022-08-06T14:33:12;3.22;;;2.20;;
65463;SDS011;52063;45.110;9.870;2022-08-06T14:35:38;2.40;;;2.20;;
65463;SDS011;52063;45.110;9.870;2022-08-06T14:38:05;2.85;;;2.17;;
65463;SDS011;52063;45.110;9.870;2022-08-06T14:40:30;4.90;;;2.33;;
65463;SDS011;52063;45.110;9.870;2022-08-06T14:43:14;5.97;;;2.20;;
65463;SDS011;52063;45.110;9.870;2022-08-06T14:45:58;3.65;;;2.22;;
65463;SDS011;52063;45.110;9.870;2022-08-06T14:48:24;2.83;;;2.50;;
65463;SDS011;52063;45.110;9.870;2022-08-06T14:50:49;5.57;;;2.97;;
65463;SDS011;52063;45.110;9.870;2022-08-06T14:53:14;6.32;;;2.30;;
65463;SDS011;52063;45.110;9.870;2022-08-06T14:55:40;4.07;;;2.47;;
65463;SDS011;52063;45.110;9.870;2022-08-06T14:58:05;2.97;;;2.00;;
65463;SDS011;52063;45.110;9.870;2022-08-06T15:00:30;4.53;;;2.33;;
65463;SDS011;52063;45.110;9.870;2022-08-06T15:02:56;2.97;;;2.10;;
65463;SDS011;52063;45.110;9.870;2022-08-06T15:05:21;5.43;;;1.97;;
65463;SDS011;52063;45.110;9.870;2022-08-06T15:07:47;2.80;;;2.30;;
65463;SDS011;52063;45.110;9.870;2022-08-06T15:10:12;2.40;;;2.17;;
65463;SDS011;52063;45.110;9.870;2022-08-06T15:12:37;4.40;;;2.40;;
65463;SDS011;52063;45.110;9.870;2022-08-06T15:15:03;3.20;;;2.10;;
65463;SDS011;52063;45.110;9.870;2022-08-06T15:17:29;5.03;;;2.40;;
65463;SDS011;52063;45.110;9.870;2022-08-06T15:19:54;8.53;;;2.27;;
65463;SDS011;52063;45.110;9.870;2022-08-06T15:22:20;5.50;;;2.20;;
65463;SDS011;52063;45.110;9.870;2022-08-06T15:24:45;33.70;;;30.02;;
65463;SDS011;52063;45.110;9.870;2022-08-06T15:27:11;219.57;;;137.30;;
65463;SDS011;52063;45.110;9.870;2022-08-06T15:29:36;304.87;;;169.47;;
65463;SDS011;52063;45.110;9.870;2022-08-06T15:32:01;279.67;;;146.77;;
65463;SDS011;52063;45.110;9.870;2022-08-06T15:34:27;247.63;;;131.63;;
65463;SDS011;52063;45.110;9.870;2022-08-06T15:36:53;212.77;;;113.57;;
65463;SDS011;52063;45.110;9.870;2022-08-06T15:39:18;187.45;;;101.47;;
65463;SDS011;52063;45.110;9.870;2022-08-06T15:41:44;155.40;;;86.97;;
65463;SDS011;52063;45.110;9.870;2022-08-06T15:44:09;138.20;;;74.67;;
65463;SDS011;52063;45.110;9.870;2022-08-06T15:46:35;121.55;;;64.75;;
65463;SDS011;52063;45.110;9.870;2022-08-06T15:49:00;100.10;;;57.40;;